Wetterstation Vordersexau
Wetterdaten: Woche 03.12.18 - 09.12.18 (KW49)
Datum Zeit Temp. A. Feuchte A. Luftdruck Regen Wind Richtung Taupunkt Windchill Windben
03.12.2018 00:00 11,8 C 84 % 1006,3 hPa 1,0 l/m 42,8 km/h S 9,2 C 1,2 C 23,8 km/h
03.12.2018 01:00 12,1 C 84 % 1007,0 hPa 0,5 l/m 46,0 km/h S-SW 9,5 C 1,3 C 25,6 km/h
03.12.2018 02:00 12,4 C 84 % 1007,1 hPa 0,0 l/m 22,7 km/h W-SW 9,8 C 5,6 C 12,6 km/h
03.12.2018 03:00 12,4 C 84 % 1006,7 hPa 0,5 l/m 28,5 km/h W-SW 9,8 C 4,3 C 15,8 km/h
03.12.2018 04:00 12,5 C 84 % 1007,0 hPa 0,0 l/m 20,1 km/h SW 9,9 C 6,5 C 11,2 km/h
03.12.2018 05:00 12,6 C 84 % 1007,1 hPa 0,0 l/m 28,5 km/h W-SW 10,0 C 4,6 C 15,8 km/h
03.12.2018 06:00 12,9 C 83 % 1007,0 hPa 0,0 l/m 38,9 km/h SW 10,1 C 3,3 C 21,6 km/h
03.12.2018 07:00 12,9 C 83 % 1007,0 hPa 0,0 l/m 42,8 km/h W-SW 10,1 C 2,9 C 23,8 km/h
03.12.2018 08:00 13,1 C 82 % 1007,0 hPa 0,0 l/m 39,5 km/h W-SW 10,1 C 3,6 C 22,0 km/h
03.12.2018 09:00 13,3 C 82 % 1007,3 hPa 0,0 l/m 40,2 km/h S-SW 10,3 C 3,8 C 22,3 km/h
03.12.2018 10:00 13,5 C 81 % 1007,9 hPa 0,0 l/m 51,8 km/h W-SW 10,3 C 2,9 C 28,8 km/h
03.12.2018 11:00 13,8 C 80 % 1007,3 hPa 0,0 l/m 53,1 km/h SW 10,4 C 3,3 C 29,5 km/h
03.12.2018 12:00 13,9 C 79 % 1006,6 hPa 0,0 l/m 26,6 km/h SW 10,3 C 6,8 C 14,8 km/h
03.12.2018 13:00 14,1 C 79 % 1006,0 hPa 0,0 l/m 42,1 km/h W-SW 10,5 C 4,7 C 23,4 km/h
03.12.2018 14:00 14,1 C 79 % 1005,4 hPa 0,0 l/m 33,0 km/h S-SW 10,5 C 5,9 C 18,4 km/h
03.12.2018 15:00 13,9 C 80 % 1005,1 hPa 0,0 l/m 37,6 km/h S 10,5 C 5,0 C 20,9 km/h
03.12.2018 16:00 14,1 C 79 % 1004,6 hPa 0,0 l/m 41,5 km/h S-SW 10,5 C 4,8 C 23,0 km/h
03.12.2018 17:00 14,4 C 77 % 1003,8 hPa 0,0 l/m 39,5 km/h W 10,4 C 5,5 C 22,0 km/h
03.12.2018 18:00 13,9 C 78 % 1004,3 hPa 0,0 l/m 28,5 km/h S-SW 10,1 C 6,4 C 15,8 km/h
03.12.2018 19:00 11,0 C 84 % 1005,3 hPa 5,7 l/m 7,8 km/h SW 8,4 C 10,0 C 4,3 km/h
03.12.2018 20:00 10,9 C 84 % 1006,9 hPa 0,0 l/m 29,2 km/h S-SW 8,3 C 2,1 C 16,2 km/h
03.12.2018 21:00 10,5 C 85 % 1008,1 hPa 0,0 l/m 27,2 km/h SW 8,1 C 2,0 C 15,1 km/h
03.12.2018 22:00 10,7 C 84 % 1009,5 hPa 0,0 l/m 25,3 km/h W-SW 8,1 C 2,7 C 14,0 km/h
03.12.2018 23:00 10,6 C 84 % 1010,0 hPa 0,0 l/m 33,0 km/h S-SW 8,0 C 0,9 C 18,4 km/h
04.12.2018 00:00 10,6 C 84 % 1010,5 hPa 0,5 l/m 37,6 km/h S-SW 8,0 C 0,1 C 20,9 km/h
04.12.2018 01:00 10,3 C 84 % 1010,8 hPa 0,0 l/m 24,6 km/h W-SW 7,7 C 2,3 C 13,7 km/h
04.12.2018 02:00 10,6 C 84 % 1011,2 hPa 0,0 l/m 22,7 km/h SW 8,0 C 3,3 C 12,6 km/h
04.12.2018 03:00 10,3 C 84 % 1011,8 hPa 0,0 l/m 10,4 km/h W-SW 7,7 C 7,7 C 5,8 km/h
04.12.2018 04:00 9,8 C 85 % 1012,2 hPa 0,5 l/m 26,6 km/h SW 7,4 C 1,2 C 14,8 km/h
04.12.2018 05:00 9,5 C 84 % 1013,3 hPa 0,5 l/m 18,8 km/h W-SW 6,9 C 3,1 C 10,4 km/h
04.12.2018 06:00 9,3 C 84 % 1013,7 hPa 0,0 l/m 0,0 km/h N 6,7 C 9,3 C 0,0 km/h
04.12.2018 07:00 8,9 C 84 % 1014,5 hPa 0,5 l/m 0,0 km/h SW 6,3 C 8,9 C 0,0 km/h
04.12.2018 08:00 8,9 C 84 % 1015,6 hPa 0,0 l/m 13,6 km/h W-NW 6,3 C 4,4 C 7,6 km/h
04.12.2018 09:00 9,1 C 84 % 1016,8 hPa 0,5 l/m 0,0 km/h W-SW 6,5 C 9,1 C 0,0 km/h
04.12.2018 10:00 9,6 C 83 % 1017,6 hPa 0,0 l/m 21,4 km/h W-SW 6,9 C 2,3 C 11,9 km/h
04.12.2018 11:00 9,9 C 85 % 1017,9 hPa 0,0 l/m 20,7 km/h W-SW 7,5 C 2,9 C 11,5 km/h
04.12.2018 12:00 10,5 C 85 % 1018,0 hPa 0,5 l/m 0,0 km/h NO 8,1 C 10,5 C 0,0 km/h
04.12.2018 13:00 7,2 C 85 % 1019,2 hPa 2,1 l/m 0,0 km/h O-SO 4,9 C 7,2 C 0,0 km/h
04.12.2018 14:00 7,1 C 84 % 1019,7 hPa 0,0 l/m 0,0 km/h O 4,6 C 7,1 C 0,0 km/h
04.12.2018 15:00 6,9 C 83 % 1020,2 hPa 0,5 l/m 0,0 km/h O-NO 4,2 C 6,9 C 0,0 km/h
04.12.2018 16:00 6,9 C 83 % 1021,1 hPa 0,0 l/m 0,0 km/h O-NO 4,2 C 6,9 C 0,0 km/h
04.12.2018 17:00 6,6 C 82 % 1021,3 hPa 0,0 l/m 0,0 km/h O-NO 3,8 C 6,6 C 0,0 km/h
04.12.2018 18:00 6,6 C 82 % 1022,1 hPa 0,0 l/m 0,0 km/h SO 3,8 C 6,6 C 0,0 km/h
04.12.2018 19:00 6,4 C 81 % 1022,2 hPa 0,0 l/m 0,0 km/h SO 3,4 C 6,4 C 0,0 km/h
04.12.2018 20:00 6,4 C 81 % 1022,4 hPa 0,0 l/m 0,0 km/h SO 3,4 C 6,4 C 0,0 km/h
04.12.2018 21:00 5,8 C 81 % 1022,6 hPa 0,0 l/m 0,0 km/h SO 2,8 C 5,8 C 0,0 km/h
04.12.2018 22:00 5,4 C 81 % 1022,6 hPa 0,0 l/m 0,0 km/h SO 2,4 C 5,4 C 0,0 km/h
04.12.2018 23:00 5,1 C 81 % 1023,3 hPa 0,0 l/m 0,0 km/h N-NO 2,1 C 5,1 C 0,0 km/h
05.12.2018 00:00 5,3 C 78 % 1022,7 hPa 0,0 l/m 0,0 km/h N-NO 1,8 C 5,3 C 0,0 km/h
05.12.2018 01:00 4,9 C 79 % 1022,8 hPa 0,0 l/m 0,0 km/h N-NO 1,6 C 4,9 C 0,0 km/h
05.12.2018 02:00 4,7 C 79 % 1022,9 hPa 0,0 l/m 0,0 km/h N-NO 1,4 C 4,7 C 0,0 km/h
05.12.2018 03:00 4,6 C 77 % 1022,7 hPa 0,0 l/m 0,0 km/h N-NO 0,9 C 4,6 C 0,0 km/h
05.12.2018 04:00 4,8 C 77 % 1022,4 hPa 0,0 l/m 0,0 km/h O-SO 1,1 C 4,8 C 0,0 km/h
05.12.2018 05:00 5,1 C 75 % 1022,6 hPa 0,0 l/m 0,0 km/h SO 1,0 C 5,1 C 0,0 km/h
05.12.2018 06:00 5,1 C 75 % 1022,2 hPa 0,0 l/m 0,0 km/h SO 1,0 C 5,1 C 0,0 km/h
05.12.2018 07:00 5,1 C 75 % 1022,2 hPa 0,0 l/m 0,0 km/h SO 1,0 C 5,1 C 0,0 km/h
05.12.2018 08:00 4,8 C 76 % 1022,9 hPa 0,0 l/m 0,0 km/h SO 0,9 C 4,8 C 0,0 km/h
05.12.2018 09:00 5,2 C 73 % 1022,7 hPa 0,0 l/m 0,0 km/h SO 0,8 C 5,2 C 0,0 km/h
05.12.2018 10:00 6,3 C 72 % 1022,6 hPa 0,0 l/m 0,0 km/h SO 1,6 C 6,3 C 0,0 km/h
05.12.2018 11:00 7,9 C 71 % 1022,0 hPa 0,0 l/m 0,0 km/h SO 3,0 C 7,9 C 0,0 km/h
05.12.2018 12:00 8,4 C 79 % 1021,4 hPa 0,0 l/m 0,0 km/h O-SO 5,0 C 8,4 C 0,0 km/h
05.12.2018 13:00 8,7 C 83 % 1020,5 hPa 0,0 l/m 0,0 km/h O-SO 6,0 C 8,7 C 0,0 km/h
05.12.2018 14:00 8,7 C 84 % 1019,5 hPa 0,0 l/m 0,0 km/h O-SO 6,2 C 8,7 C 0,0 km/h
05.12.2018 15:00 8,1 C 85 % 1019,2 hPa 0,0 l/m 0,0 km/h O-SO 5,7 C 8,1 C 0,0 km/h
05.12.2018 16:00 7,4 C 85 % 1018,7 hPa 0,0 l/m 0,0 km/h O-SO 5,0 C 7,4 C 0,0 km/h
05.12.2018 17:00 6,8 C 85 % 1018,4 hPa 0,0 l/m 0,0 km/h O-SO 4,5 C 6,8 C 0,0 km/h
05.12.2018 18:00 6,4 C 84 % 1017,9 hPa 0,0 l/m 0,0 km/h O-SO 3,9 C 6,4 C 0,0 km/h
05.12.2018 19:00 6,1 C 83 % 1017,6 hPa 0,0 l/m 0,0 km/h O-SO 3,4 C 6,1 C 0,0 km/h
05.12.2018 20:00 5,9 C 81 % 1017,0 hPa 0,0 l/m 0,0 km/h SO 2,9 C 5,9 C 0,0 km/h
05.12.2018 21:00 6,3 C 79 % 1016,3 hPa 0,0 l/m 0,0 km/h N 2,9 C 6,3 C 0,0 km/h
05.12.2018 22:00 6,4 C 78 % 1016,4 hPa 0,0 l/m 0,0 km/h N 2,8 C 6,4 C 0,0 km/h
05.12.2018 23:00 6,6 C 77 % 1016,2 hPa 0,0 l/m 0,0 km/h N 2,9 C 6,6 C 0,0 km/h
06.12.2018 00:00 6,8 C 76 % 1015,4 hPa 0,0 l/m 0,0 km/h NO 2,9 C 6,8 C 0,0 km/h
06.12.2018 01:00 7,0 C 76 % 1015,4 hPa 0,0 l/m 0,0 km/h O-NO 3,1 C 7,0 C 0,0 km/h
06.12.2018 02:00 7,3 C 75 % 1015,2 hPa 0,0 l/m 0,0 km/h W-SW 3,2 C 7,3 C 0,0 km/h
06.12.2018 03:00 8,9 C 82 % 1015,5 hPa 0,0 l/m 0,0 km/h SW 6,0 C 8,9 C 0,0 km/h
06.12.2018 04:00 10,4 C 84 % 1015,6 hPa 0,5 l/m 27,2 km/h SW 7,8 C 1,8 C 15,1 km/h
06.12.2018 05:00 9,8 C 85 % 1016,2 hPa 0,5 l/m 25,9 km/h W-SW 7,4 C 1,3 C 14,4 km/h
06.12.2018 06:00 9,9 C 85 % 1016,1 hPa 0,0 l/m 12,3 km/h W 7,5 C 6,2 C 6,8 km/h
06.12.2018 07:00 9,9 C 85 % 1016,4 hPa 0,0 l/m 18,8 km/h W 7,5 C 3,6 C 10,4 km/h
06.12.2018 08:00 9,9 C 85 % 1017,7 hPa 0,0 l/m 0,0 km/h S-SW 7,5 C 9,9 C 0,0 km/h
06.12.2018 09:00 9,9 C 85 % 1018,3 hPa 0,0 l/m 11,7 km/h SW 7,5 C 6,6 C 6,5 km/h
06.12.2018 10:00 10,6 C 84 % 1018,6 hPa 0,0 l/m 0,0 km/h W-SW 8,0 C 10,6 C 0,0 km/h
06.12.2018 11:00 12,2 C 84 % 1018,6 hPa 0,0 l/m 22,7 km/h SW 9,6 C 5,4 C 12,6 km/h
06.12.2018 12:00 11,6 C 84 % 1019,0 hPa 0,0 l/m 23,3 km/h W 9,0 C 4,4 C 13,0 km/h
06.12.2018 13:00 11,6 C 84 % 1018,6 hPa 0,0 l/m 20,7 km/h W-SW 9,0 C 5,1 C 11,5 km/h
06.12.2018 14:00 12,8 C 82 % 1018,4 hPa 0,0 l/m 43,4 km/h SW 9,8 C 2,6 C 24,1 km/h
06.12.2018 15:00 11,9 C 82 % 1019,0 hPa 0,0 l/m 24,0 km/h SW 8,9 C 4,7 C 13,3 km/h
06.12.2018 16:00 11,9 C 82 % 1019,1 hPa 0,0 l/m 19,4 km/h SW 8,9 C 5,9 C 10,8 km/h
06.12.2018 17:00 11,7 C 83 % 1019,0 hPa 0,0 l/m 13,6 km/h W-SW 8,9 C 7,8 C 7,6 km/h
06.12.2018 18:00 11,6 C 83 % 1019,9 hPa 0,0 l/m 16,8 km/h S-SW 8,8 C 6,4 C 9,4 km/h
06.12.2018 19:00 12,0 C 83 % 1019,9 hPa 0,0 l/m 24,0 km/h SW 9,2 C 4,8 C 13,3 km/h
06.12.2018 20:00 12,1 C 82 % 1019,9 hPa 0,0 l/m 29,8 km/h S-SW 9,1 C 3,6 C 16,6 km/h
06.12.2018 21:00 12,1 C 82 % 1019,5 hPa 0,0 l/m 27,9 km/h S-SW 9,1 C 4,0 C 15,5 km/h
06.12.2018 22:00 12,1 C 82 % 1019,4 hPa 0,0 l/m 44,7 km/h SW 9,1 C 1,4 C 24,8 km/h
06.12.2018 23:00 12,2 C 82 % 1019,6 hPa 0,0 l/m 14,9 km/h W-SW 9,2 C 7,8 C 8,3 km/h
07.12.2018 00:00 12,2 C 82 % 1019,2 hPa 0,0 l/m 24,0 km/h W-SW 9,2 C 5,1 C 13,3 km/h
07.12.2018 01:00 12,1 C 82 % 1018,8 hPa 0,0 l/m 20,7 km/h S-SW 9,1 C 5,8 C 11,5 km/h
07.12.2018 02:00 12,1 C 82 % 1018,5 hPa 0,0 l/m 22,0 km/h W-SW 9,1 C 5,4 C 12,2 km/h
07.12.2018 03:00 12,1 C 82 % 1017,9 hPa 0,0 l/m 23,3 km/h W-SW 9,1 C 5,1 C 13,0 km/h
07.12.2018 04:00 11,9 C 82 % 1017,2 hPa 0,0 l/m 24,0 km/h W-SW 8,9 C 4,7 C 13,3 km/h
07.12.2018 05:00 11,7 C 82 % 1017,1 hPa 0,0 l/m 29,2 km/h SW 8,7 C 3,2 C 16,2 km/h
07.12.2018 06:00 11,4 C 81 % 1016,9 hPa 0,0 l/m 18,8 km/h S-SW 8,3 C 5,5 C 10,4 km/h
07.12.2018 07:00 11,4 C 81 % 1016,5 hPa 0,0 l/m 36,9 km/h S-SW 8,3 C 1,4 C 20,5 km/h
07.12.2018 08:00 11,2 C 81 % 1016,2 hPa 0,0 l/m 33,0 km/h W 8,1 C 1,8 C 18,4 km/h
07.12.2018 09:00 11,4 C 79 % 1015,5 hPa 0,0 l/m 19,4 km/h SW 7,9 C 5,3 C 10,8 km/h
07.12.2018 10:00 11,3 C 78 % 1015,0 hPa 0,0 l/m 28,5 km/h W-SW 7,6 C 2,8 C 15,8 km/h
07.12.2018 11:00 11,4 C 77 % 1014,3 hPa 0,0 l/m 27,9 km/h W-SW 7,5 C 3,1 C 15,5 km/h
07.12.2018 12:00 11,4 C 76 % 1013,1 hPa 0,0 l/m 25,3 km/h S-SW 7,3 C 3,7 C 14,0 km/h
07.12.2018 13:00 11,9 C 75 % 1011,6 hPa 0,0 l/m 30,5 km/h SW 7,6 C 3,2 C 16,9 km/h
07.12.2018 14:00 11,5 C 75 % 1010,4 hPa 0,0 l/m 33,7 km/h W-SW 7,2 C 2,1 C 18,7 km/h
07.12.2018 15:00 11,1 C 77 % 1009,1 hPa 0,0 l/m 22,0 km/h W 7,2 C 4,1 C 12,2 km/h
07.12.2018 16:00 11,1 C 77 % 1008,4 hPa 0,0 l/m 15,6 km/h W-SW 7,2 C 6,2 C 8,6 km/h
07.12.2018 17:00 11,2 C 76 % 1007,5 hPa 0,0 l/m 59,0 km/h SW 7,1 C -1,2 C 32,8 km/h
07.12.2018 18:00 10,8 C 77 % 1006,5 hPa 0,0 l/m 42,8 km/h W-SW 6,9 C -0,3 C 23,8 km/h
07.12.2018 19:00 11,0 C 76 % 1006,2 hPa 0,0 l/m 27,2 km/h W-SW 6,9 C 2,7 C 15,1 km/h
07.12.2018 20:00 11,5 C 76 % 1006,5 hPa 0,5 l/m 63,5 km/h W 7,4 C -1,0 C 35,3 km/h
07.12.2018 21:00 9,8 C 80 % 1008,8 hPa 0,0 l/m 16,2 km/h W 6,5 C 4,4 C 9,0 km/h
07.12.2018 22:00 7,8 C 79 % 1010,3 hPa 0,0 l/m 0,0 km/h N-NW 4,4 C 7,8 C 0,0 km/h
07.12.2018 23:00 5,6 C 81 % 1012,1 hPa 0,5 l/m 7,8 km/h W 2,6 C 4,4 C 4,3 km/h
08.12.2018 00:00 6,4 C 79 % 1012,6 hPa 0,0 l/m 0,0 km/h S-SW 3,0 C 6,4 C 0,0 km/h
08.12.2018 01:00 6,6 C 82 % 1013,4 hPa 0,0 l/m 19,4 km/h SW 3,8 C -0,9 C 10,8 km/h
08.12.2018 02:00 6,4 C 80 % 1014,0 hPa 0,0 l/m 12,3 km/h S-SW 3,2 C 2,2 C 6,8 km/h
08.12.2018 03:00 6,4 C 78 % 1014,0 hPa 0,0 l/m 24,6 km/h W-SW 2,8 C -2,9 C 13,7 km/h
08.12.2018 04:00 6,5 C 77 % 1014,3 hPa 0,0 l/m 27,9 km/h W-SW 2,8 C -3,7 C 15,5 km/h
08.12.2018 05:00 6,3 C 78 % 1014,1 hPa 0,0 l/m 31,1 km/h SW 2,8 C -4,8 C 17,3 km/h
08.12.2018 06:00 6,3 C 78 % 1014,5 hPa 0,0 l/m 40,2 km/h S-SW 2,8 C -6,6 C 22,3 km/h
08.12.2018 07:00 6,3 C 78 % 1014,7 hPa 0,0 l/m 23,3 km/h W 2,8 C -2,6 C 13,0 km/h
08.12.2018 08:00 6,1 C 79 % 1014,5 hPa 0,0 l/m 35,0 km/h W 2,7 C -6,0 C 19,4 km/h
08.12.2018 09:00 6,8 C 78 % 1014,1 hPa 0,0 l/m 29,8 km/h W-SW 3,2 C -3,8 C 16,6 km/h
08.12.2018 10:00 7,3 C 77 % 1013,7 hPa 0,0 l/m 48,0 km/h W-SW 3,5 C -6,2 C 26,6 km/h
08.12.2018 11:00 7,4 C 77 % 1013,6 hPa 0,0 l/m 24,6 km/h W-SW 3,6 C -1,6 C 13,7 km/h
08.12.2018 12:00 7,6 C 79 % 1013,0 hPa 0,0 l/m 34,3 km/h W-SW 4,2 C -3,6 C 19,1 km/h
08.12.2018 13:00 7,9 C 78 % 1012,9 hPa 0,0 l/m 54,4 km/h W-SW 4,3 C -6,0 C 30,2 km/h
08.12.2018 14:00 7,7 C 79 % 1012,9 hPa 0,0 l/m 35,6 km/h W-SW 4,3 C -3,8 C 19,8 km/h
08.12.2018 15:00 7,6 C 81 % 1013,1 hPa 0,0 l/m 45,4 km/h W-SW 4,6 C -5,4 C 25,2 km/h
08.12.2018 16:00 7,8 C 80 % 1012,9 hPa 0,0 l/m 49,2 km/h W-SW 4,6 C -5,6 C 27,4 km/h
08.12.2018 17:00 7,9 C 80 % 1012,6 hPa 0,0 l/m 41,5 km/h W-SW 4,7 C -4,5 C 23,0 km/h
08.12.2018 18:00 8,2 C 78 % 1011,7 hPa 0,0 l/m 50,5 km/h W-SW 4,6 C -5,1 C 28,1 km/h
08.12.2018 19:00 8,0 C 80 % 1010,7 hPa 0,5 l/m 30,5 km/h SW 4,8 C -2,3 C 16,9 km/h
08.12.2018 20:00 8,4 C 80 % 1009,5 hPa 0,0 l/m 51,8 km/h W-SW 5,2 C -5,0 C 28,8 km/h
08.12.2018 21:00 8,9 C 79 % 1008,8 hPa 0,0 l/m 29,8 km/h SW 5,5 C -0,8 C 16,6 km/h
08.12.2018 22:00 9,1 C 80 % 1007,0 hPa 0,0 l/m 53,1 km/h W-SW 5,8 C -4,0 C 29,5 km/h
08.12.2018 23:00 9,3 C 81 % 1005,9 hPa 0,0 l/m 52,5 km/h W-SW 6,2 C -3,6 C 29,2 km/h
09.12.2018 00:00 9,9 C 79 % 1004,9 hPa 0,0 l/m 25,9 km/h W-SW 6,4 C 1,5 C 14,4 km/h
09.12.2018 01:00 9,8 C 81 % 1004,5 hPa 0,0 l/m 56,4 km/h W-SW 6,7 C -3,2 C 31,3 km/h
09.12.2018 02:00 9,3 C 83 % 1003,3 hPa 0,0 l/m 44,7 km/h NW 6,6 C -2,8 C 24,8 km/h
09.12.2018 03:00 8,6 C 84 % 1003,4 hPa 1,6 l/m 0,0 km/h W 6,1 C 8,6 C 0,0 km/h
09.12.2018 04:00 8,2 C 84 % 1003,0 hPa 0,0 l/m 8,4 km/h N-NO 5,7 C 6,7 C 4,7 km/h
09.12.2018 05:00 5,8 C 84 % 1004,6 hPa 3,1 l/m 17,5 km/h W 3,3 C -1,1 C 9,7 km/h
09.12.2018 06:00 5,3 C 85 % 1004,5 hPa 1,0 l/m 14,9 km/h W 3,0 C -0,5 C 8,3 km/h
09.12.2018 07:00 6,7 C 85 % 1004,9 hPa 0,0 l/m 9,1 km/h W 4,4 C 4,6 C 5,0 km/h
09.12.2018 08:00 7,2 C 83 % 1006,3 hPa 0,0 l/m 26,6 km/h SW 4,5 C -2,4 C 14,8 km/h
09.12.2018 09:00 7,3 C 82 % 1007,1 hPa 0,0 l/m 23,3 km/h W-SW 4,4 C -1,3 C 13,0 km/h
09.12.2018 10:00 7,9 C 80 % 1007,0 hPa 0,0 l/m 27,2 km/h W-SW 4,7 C -1,6 C 15,1 km/h
09.12.2018 11:00 8,1 C 80 % 1006,5 hPa 0,0 l/m 25,3 km/h W 4,9 C -0,8 C 14,0 km/h
09.12.2018 12:00 7,6 C 83 % 1006,6 hPa 1,0 l/m 25,3 km/h W-NW 4,9 C -1,5 C 14,0 km/h
09.12.2018 13:00 7,9 C 81 % 1006,5 hPa 0,0 l/m 31,8 km/h W-SW 4,8 C -2,7 C 17,6 km/h
09.12.2018 14:00 7,7 C 82 % 1005,8 hPa 0,0 l/m 46,0 km/h W 4,8 C -5,4 C 25,6 km/h
09.12.2018 15:00 7,1 C 85 % 1006,5 hPa 1,0 l/m 20,1 km/h W 4,8 C -0,5 C 11,2 km/h
09.12.2018 16:00 7,3 C 85 % 1007,5 hPa 0,0 l/m 44,1 km/h SW 4,9 C -5,7 C 24,5 km/h
09.12.2018 17:00 7,1 C 85 % 1008,1 hPa 0,0 l/m 41,5 km/h W 4,8 C -5,6 C 23,0 km/h
09.12.2018 18:00 6,5 C 85 % 1010,2 hPa 2,1 l/m 8,4 km/h W-SW 4,2 C 4,9 C 4,7 km/h
09.12.2018 19:00 6,7 C 85 % 1010,9 hPa 0,0 l/m 24,0 km/h W 4,4 C -2,3 C 13,3 km/h
09.12.2018 20:00 6,8 C 85 % 1012,1 hPa 0,0 l/m 3,2 km/h W 4,5 C 6,8 C 1,8 km/h
09.12.2018 21:00 6,4 C 85 % 1013,1 hPa 0,0 l/m 15,6 km/h W-NW 4,1 C 0,5 C 8,6 km/h
09.12.2018 22:00 6,2 C 85 % 1014,0 hPa 0,0 l/m 9,7 km/h N-NW 3,9 C 3,6 C 5,4 km/h
09.12.2018 23:00 5,8 C 85 % 1015,6 hPa 0,0 l/m 0,0 km/h W 3,5 C 5,8 C 0,0 km/h
Min-Datum _ 05.12.18 05.12.18 09.12.18 - 04.12.18 - 05.12.18 08.12.18 04.12.18
_ Min-Zeit 03:31 11:31 04:30 - 06:31 - 09:31 06:30 06:31
Minimum _ 4,6 C 71 % 1003,0 hPa - 0,0 km/h - 0,8 C -6,6 C 0,0 km/h
Max-Datum _ 03.12.18 03.12.18 04.12.18 03.12.18 07.12.18 - 03.12.18 06.12.18 07.12.18
_ Max-Zeit 17:31 21:31 23:31 19:31 20:30 - 13:31 10:31 20:30
Maximum _ 14,4 C 85 % 1023,3 hPa 5,7 l/m 63,5 km/h
W
- 10,5 C 10,6 C 35,3 km/h
W
Durchschnitt _ 9,1 C 81 % 1013,6 hPa #25,9 l/m 20,8 km/h W-SW 6,0 C 3,2 C 11,5 km/h
www.sexauwetter.de